sensor_id;sensor_type;location;lat;lon;timestamp;temperature;humidity
16174;DHT22;14031;50.158;8.626;2022-11-21T00:00:06;7.30;99.90
16174;DHT22;14031;50.158;8.626;2022-11-21T00:02:33;7.30;99.90
16174;DHT22;14031;50.158;8.626;2022-11-21T00:04:59;7.40;99.90
16174;DHT22;14031;50.158;8.626;2022-11-21T00:07:26;7.40;99.90
16174;DHT22;14031;50.158;8.626;2022-11-21T00:09:53;7.30;99.90
16174;DHT22;14031;50.158;8.626;2022-11-21T00:12:19;7.30;99.90
16174;DHT22;14031;50.158;8.626;2022-11-21T00:14:47;7.30;99.90
16174;DHT22;14031;50.158;8.626;2022-11-21T00:17:15;7.30;99.90
16174;DHT22;14031;50.158;8.626;2022-11-21T00:19:41;7.30;99.90
16174;DHT22;14031;50.158;8.626;2022-11-21T00:22:08;7.30;99.90
16174;DHT22;14031;50.158;8.626;2022-11-21T00:24:35;7.30;99.90
16174;DHT22;14031;50.158;8.626;2022-11-21T00:27:02;7.30;99.90
16174;DHT22;14031;50.158;8.626;2022-11-21T00:29:28;7.30;99.90
16174;DHT22;14031;50.158;8.626;2022-11-21T00:31:56;7.30;99.90
16174;DHT22;14031;50.158;8.626;2022-11-21T00:34:23;7.30;99.90
16174;DHT22;14031;50.158;8.626;2022-11-21T00:36:50;7.30;99.90
16174;DHT22;14031;50.158;8.626;2022-11-21T00:39:17;7.30;99.90
16174;DHT22;14031;50.158;8.626;2022-11-21T00:41:43;7.30;99.90
16174;DHT22;14031;50.158;8.626;2022-11-21T00:44:10;7.30;99.90
16174;DHT22;14031;50.158;8.626;2022-11-21T00:46:37;7.30;99.90
16174;DHT22;14031;50.158;8.626;2022-11-21T00:49:05;7.30;99.90
16174;DHT22;14031;50.158;8.626;2022-11-21T00:51:32;7.30;99.90
16174;DHT22;14031;50.158;8.626;2022-11-21T00:53:58;7.30;99.90
16174;DHT22;14031;50.158;8.626;2022-11-21T00:56:25;7.20;99.90
16174;DHT22;14031;50.158;8.626;2022-11-21T00:58:52;7.30;99.90
16174;DHT22;14031;50.158;8.626;2022-11-21T01:01:19;7.30;99.90
16174;DHT22;14031;50.158;8.626;2022-11-21T01:03:45;7.30;99.90
16174;DHT22;14031;50.158;8.626;2022-11-21T01:06:14;7.30;99.90
16174;DHT22;14031;50.158;8.626;2022-11-21T01:08:42;7.30;99.90
16174;DHT22;14031;50.158;8.626;2022-11-21T01:11:11;7.30;99.90
16174;DHT22;14031;50.158;8.626;2022-11-21T01:13:39;7.30;99.90
16174;DHT22;14031;50.158;8.626;2022-11-21T01:16:07;7.40;99.90
16174;DHT22;14031;50.158;8.626;2022-11-21T01:18:35;7.40;99.90
16174;DHT22;14031;50.158;8.626;2022-11-21T01:21:03;7.40;99.90
16174;DHT22;14031;50.158;8.626;2022-11-21T01:23:32;7.40;99.90
16174;DHT22;14031;50.158;8.626;2022-11-21T01:26:03;7.30;99.90
16174;DHT22;14031;50.158;8.626;2022-11-21T01:28:30;7.40;99.90
16174;DHT22;14031;50.158;8.626;2022-11-21T01:31:02;7.40;99.90
16174;DHT22;14031;50.158;8.626;2022-11-21T01:33:29;7.50;99.90
16174;DHT22;14031;50.158;8.626;2022-11-21T01:35:56;7.50;99.90
16174;DHT22;14031;50.158;8.626;2022-11-21T01:38:23;7.40;99.90
16174;DHT22;14031;50.158;8.626;2022-11-21T01:40:51;7.40;99.90
16174;DHT22;14031;50.158;8.626;2022-11-21T01:43:18;7.30;99.90
16174;DHT22;14031;50.158;8.626;2022-11-21T01:45:56;7.40;99.90
16174;DHT22;14031;50.158;8.626;2022-11-21T01:48:28;7.50;99.90
16174;DHT22;14031;50.158;8.626;2022-11-21T01:51:00;7.40;99.90
16174;DHT22;14031;50.158;8.626;2022-11-21T01:53:28;7.40;99.90
16174;DHT22;14031;50.158;8.626;2022-11-21T01:55:57;7.40;99.90
16174;DHT22;14031;50.158;8.626;2022-11-21T01:58:24;7.50;99.90
16174;DHT22;14031;50.158;8.626;2022-11-21T02:00:51;7.50;99.90
16174;DHT22;14031;50.158;8.626;2022-11-21T02:03:21;7.50;99.90
16174;DHT22;14031;50.158;8.626;2022-11-21T02:05:51;7.50;99.90
16174;DHT22;14031;50.158;8.626;2022-11-21T02:08:20;7.60;99.90
16174;DHT22;14031;50.158;8.626;2022-11-21T02:10:53;7.40;99.90
16174;DHT22;14031;50.158;8.626;2022-11-21T02:13:23;7.40;99.90
16174;DHT22;14031;50.158;8.626;2022-11-21T02:15:51;7.30;99.90
16174;DHT22;14031;50.158;8.626;2022-11-21T02:18:17;7.40;99.90
16174;DHT22;14031;50.158;8.626;2022-11-21T02:20:48;7.30;99.90
16174;DHT22;14031;50.158;8.626;2022-11-21T02:23:22;7.30;99.90
16174;DHT22;14031;50.158;8.626;2022-11-21T02:25:54;7.40;99.90
16174;DHT22;14031;50.158;8.626;2022-11-21T02:28:21;7.20;99.90
16174;DHT22;14031;50.158;8.626;2022-11-21T02:30:50;7.40;99.90
16174;DHT22;14031;50.158;8.626;2022-11-21T02:33:16;7.30;99.90
16174;DHT22;14031;50.158;8.626;2022-11-21T02:35:43;7.50;99.90
16174;DHT22;14031;50.158;8.626;2022-11-21T02:38:15;7.30;99.90
16174;DHT22;14031;50.158;8.626;2022-11-21T02:40:47;7.30;99.90
16174;DHT22;14031;50.158;8.626;2022-11-21T02:43:20;7.30;99.90
16174;DHT22;14031;50.158;8.626;2022-11-21T02:45:48;7.30;99.90
16174;DHT22;14031;50.158;8.626;2022-11-21T02:48:14;7.30;99.90
16174;DHT22;14031;50.158;8.626;2022-11-21T02:50:43;7.20;99.90
16174;DHT22;14031;50.158;8.626;2022-11-21T02:53:12;7.30;99.90
16174;DHT22;14031;50.158;8.626;2022-11-21T02:55:39;7.20;99.90
16174;DHT22;14031;50.158;8.626;2022-11-21T02:58:06;7.30;99.90
16174;DHT22;14031;50.158;8.626;2022-11-21T03:00:38;7.30;99.90
16174;DHT22;14031;50.158;8.626;2022-11-21T03:03:04;7.30;99.90
16174;DHT22;14031;50.158;8.626;2022-11-21T03:05:31;7.40;99.90
16174;DHT22;14031;50.158;8.626;2022-11-21T03:07:58;7.30;99.90
16174;DHT22;14031;50.158;8.626;2022-11-21T03:10:25;7.30;99.90
16174;DHT22;14031;50.158;8.626;2022-11-21T03:12:52;7.40;99.90
16174;DHT22;14031;50.158;8.626;2022-11-21T03:15:25;7.30;99.90
16174;DHT22;14031;50.158;8.626;2022-11-21T03:17:54;7.30;99.90
16174;DHT22;14031;50.158;8.626;2022-11-21T03:20:21;7.30;99.90
16174;DHT22;14031;50.158;8.626;2022-11-21T03:22:48;7.30;99.90
16174;DHT22;14031;50.158;8.626;2022-11-21T03:25:15;7.20;99.90
16174;DHT22;14031;50.158;8.626;2022-11-21T03:27:42;7.20;99.90
16174;DHT22;14031;50.158;8.626;2022-11-21T03:30:10;7.30;99.90
16174;DHT22;14031;50.158;8.626;2022-11-21T03:32:37;7.30;99.90
16174;DHT22;14031;50.158;8.626;2022-11-21T03:35:05;7.20;99.90
16174;DHT22;14031;50.158;8.626;2022-11-21T03:37:32;7.30;99.90
16174;DHT22;14031;50.158;8.626;2022-11-21T03:39:59;7.30;99.90
16174;DHT22;14031;50.158;8.626;2022-11-21T03:42:26;7.20;99.90
16174;DHT22;14031;50.158;8.626;2022-11-21T03:44:53;7.20;99.90
16174;DHT22;14031;50.158;8.626;2022-11-21T03:47:19;7.20;99.90
16174;DHT22;14031;50.158;8.626;2022-11-21T03:49:47;7.30;99.90
16174;DHT22;14031;50.158;8.626;2022-11-21T03:52:15;7.30;99.90
16174;DHT22;14031;50.158;8.626;2022-11-21T03:54:41;7.30;99.90
16174;DHT22;14031;50.158;8.626;2022-11-21T03:57:08;7.30;99.90
16174;DHT22;14031;50.158;8.626;2022-11-21T03:59:35;7.40;99.90
16174;DHT22;14031;50.158;8.626;2022-11-21T04:02:02;7.30;99.90
16174;DHT22;14031;50.158;8.626;2022-11-21T04:04:29;7.30;99.90
16174;DHT22;14031;50.158;8.626;2022-11-21T04:06:55;7.40;99.90
16174;DHT22;14031;50.158;8.626;2022-11-21T04:09:23;7.40;99.90
16174;DHT22;14031;50.158;8.626;2022-11-21T04:11:50;7.40;99.90
16174;DHT22;14031;50.158;8.626;2022-11-21T04:14:17;7.50;99.90
16174;DHT22;14031;50.158;8.626;2022-11-21T04:16:44;7.50;99.90
16174;DHT22;14031;50.158;8.626;2022-11-21T04:19:10;7.50;99.90
16174;DHT22;14031;50.158;8.626;2022-11-21T04:21:37;7.50;99.90
16174;DHT22;14031;50.158;8.626;2022-11-21T04:24:05;7.60;99.90
16174;DHT22;14031;50.158;8.626;2022-11-21T04:26:33;7.50;99.90
16174;DHT22;14031;50.158;8.626;2022-11-21T04:29:00;7.40;99.90
16174;DHT22;14031;50.158;8.626;2022-11-21T04:31:26;7.50;99.90
16174;DHT22;14031;50.158;8.626;2022-11-21T04:33:53;7.50;99.90
16174;DHT22;14031;50.158;8.626;2022-11-21T04:36:20;7.60;99.90
16174;DHT22;14031;50.158;8.626;2022-11-21T04:38:47;7.60;99.90
16174;DHT22;14031;50.158;8.626;2022-11-21T04:41:13;7.60;99.90
16174;DHT22;14031;50.158;8.626;2022-11-21T04:43:41;7.50;99.90
16174;DHT22;14031;50.158;8.626;2022-11-21T04:46:08;7.50;99.90
16174;DHT22;14031;50.158;8.626;2022-11-21T04:48:35;7.70;99.90
16174;DHT22;14031;50.158;8.626;2022-11-21T04:51:03;7.60;99.90
16174;DHT22;14031;50.158;8.626;2022-11-21T04:53:29;7.70;99.90
16174;DHT22;14031;50.158;8.626;2022-11-21T04:55:56;7.60;99.90
16174;DHT22;14031;50.158;8.626;2022-11-21T04:58:24;7.80;99.90
16174;DHT22;14031;50.158;8.626;2022-11-21T05:00:52;7.80;99.90
16174;DHT22;14031;50.158;8.626;2022-11-21T05:03:19;7.60;99.90
16174;DHT22;14031;50.158;8.626;2022-11-21T05:05:46;7.70;99.90
16174;DHT22;14031;50.158;8.626;2022-11-21T05:08:13;7.50;99.90
16174;DHT22;14031;50.158;8.626;2022-11-21T05:10:42;7.60;99.90
16174;DHT22;14031;50.158;8.626;2022-11-21T05:13:26;7.70;99.90
16174;DHT22;14031;50.158;8.626;2022-11-21T05:15:56;7.70;99.90
16174;DHT22;14031;50.158;8.626;2022-11-21T05:18:24;7.70;99.90
16174;DHT22;14031;50.158;8.626;2022-11-21T05:20:50;7.70;99.90
16174;DHT22;14031;50.158;8.626;2022-11-21T05:23:17;7.60;99.90
16174;DHT22;14031;50.158;8.626;2022-11-21T05:25:44;7.70;99.90
16174;DHT22;14031;50.158;8.626;2022-11-21T05:28:10;7.80;99.90
16174;DHT22;14031;50.158;8.626;2022-11-21T05:30:37;7.60;99.90
16174;DHT22;14031;50.158;8.626;2022-11-21T05:33:05;7.60;99.90
16174;DHT22;14031;50.158;8.626;2022-11-21T05:35:32;7.60;99.90
16174;DHT22;14031;50.158;8.626;2022-11-21T05:37:59;7.50;99.90
16174;DHT22;14031;50.158;8.626;2022-11-21T05:40:26;7.60;99.90
16174;DHT22;14031;50.158;8.626;2022-11-21T05:42:52;7.60;99.90
16174;DHT22;14031;50.158;8.626;2022-11-21T05:45:36;7.70;99.90
16174;DHT22;14031;50.158;8.626;2022-11-21T05:48:05;7.50;99.90
16174;DHT22;14031;50.158;8.626;2022-11-21T05:50:33;7.50;99.90
16174;DHT22;14031;50.158;8.626;2022-11-21T05:53:01;7.50;99.90
16174;DHT22;14031;50.158;8.626;2022-11-21T05:55:29;7.50;99.90
16174;DHT22;14031;50.158;8.626;2022-11-21T05:57:57;7.50;99.90
16174;DHT22;14031;50.158;8.626;2022-11-21T06:00:25;7.50;99.90
16174;DHT22;14031;50.158;8.626;2022-11-21T06:02:52;7.60;99.90
16174;DHT22;14031;50.158;8.626;2022-11-21T06:05:43;7.60;99.90
16174;DHT22;14031;50.158;8.626;2022-11-21T06:08:10;7.60;99.90
16174;DHT22;14031;50.158;8.626;2022-11-21T06:10:37;7.70;99.90
16174;DHT22;14031;50.158;8.626;2022-11-21T06:13:04;7.60;99.90
16174;DHT22;14031;50.158;8.626;2022-11-21T06:15:47;7.60;99.90
16174;DHT22;14031;50.158;8.626;2022-11-21T06:18:13;7.60;99.90
16174;DHT22;14031;50.158;8.626;2022-11-21T06:20:40;7.70;99.90
16174;DHT22;14031;50.158;8.626;2022-11-21T06:23:08;7.50;99.90
16174;DHT22;14031;50.158;8.626;2022-11-21T06:25:35;7.50;99.90
16174;DHT22;14031;50.158;8.626;2022-11-21T06:28:02;7.50;99.90
16174;DHT22;14031;50.158;8.626;2022-11-21T06:30:29;7.50;99.90
16174;DHT22;14031;50.158;8.626;2022-11-21T06:32:56;7.40;99.90
16174;DHT22;14031;50.158;8.626;2022-11-21T06:35:22;7.40;99.90
16174;DHT22;14031;50.158;8.626;2022-11-21T06:37:49;7.40;99.90
16174;DHT22;14031;50.158;8.626;2022-11-21T06:40:17;7.40;99.90
16174;DHT22;14031;50.158;8.626;2022-11-21T06:42:44;7.40;99.90
16174;DHT22;14031;50.158;8.626;2022-11-21T06:45:11;7.40;99.90
16174;DHT22;14031;50.158;8.626;2022-11-21T06:47:37;7.30;99.90
16174;DHT22;14031;50.158;8.626;2022-11-21T06:50:05;7.30;99.90
16174;DHT22;14031;50.158;8.626;2022-11-21T06:52:32;7.30;99.90
16174;DHT22;14031;50.158;8.626;2022-11-21T06:54:59;7.30;99.90
16174;DHT22;14031;50.158;8.626;2022-11-21T06:57:27;7.20;99.90
16174;DHT22;14031;50.158;8.626;2022-11-21T06:59:54;7.30;99.90
16174;DHT22;14031;50.158;8.626;2022-11-21T07:02:21;7.30;99.90
16174;DHT22;14031;50.158;8.626;2022-11-21T07:04:48;7.40;99.90
16174;DHT22;14031;50.158;8.626;2022-11-21T07:07:14;7.20;99.90
16174;DHT22;14031;50.158;8.626;2022-11-21T07:09:41;7.40;99.90
16174;DHT22;14031;50.158;8.626;2022-11-21T07:12:09;7.50;99.90
16174;DHT22;14031;50.158;8.626;2022-11-21T07:14:54;7.40;99.90
16174;DHT22;14031;50.158;8.626;2022-11-21T07:17:21;7.40;99.90
16174;DHT22;14031;50.158;8.626;2022-11-21T07:19:48;7.40;99.90
16174;DHT22;14031;50.158;8.626;2022-11-21T07:22:15;7.40;99.90
16174;DHT22;14031;50.158;8.626;2022-11-21T07:24:41;7.40;99.90
16174;DHT22;14031;50.158;8.626;2022-11-21T07:27:08;7.50;99.90
16174;DHT22;14031;50.158;8.626;2022-11-21T07:29:35;7.50;99.90
16174;DHT22;14031;50.158;8.626;2022-11-21T07:32:03;7.60;99.90
16174;DHT22;14031;50.158;8.626;2022-11-21T07:34:30;7.60;99.90
16174;DHT22;14031;50.158;8.626;2022-11-21T07:37:01;7.60;99.90
16174;DHT22;14031;50.158;8.626;2022-11-21T07:39:28;7.60;99.90
16174;DHT22;14031;50.158;8.626;2022-11-21T07:41:55;7.80;99.90
16174;DHT22;14031;50.158;8.626;2022-11-21T07:44:21;7.60;99.90
16174;DHT22;14031;50.158;8.626;2022-11-21T07:46:48;7.60;99.90
16174;DHT22;14031;50.158;8.626;2022-11-21T07:49:16;7.60;99.90
16174;DHT22;14031;50.158;8.626;2022-11-21T07:51:43;7.70;99.90
16174;DHT22;14031;50.158;8.626;2022-11-21T07:54:10;7.90;99.90
16174;DHT22;14031;50.158;8.626;2022-11-21T07:56:36;7.90;99.90
16174;DHT22;14031;50.158;8.626;2022-11-21T07:59:03;7.80;99.90
16174;DHT22;14031;50.158;8.626;2022-11-21T08:01:30;7.90;99.90
16174;DHT22;14031;50.158;8.626;2022-11-21T08:03:57;7.90;99.90
16174;DHT22;14031;50.158;8.626;2022-11-21T08:06:25;7.90;99.90
16174;DHT22;14031;50.158;8.626;2022-11-21T08:08:52;7.90;99.90
16174;DHT22;14031;50.158;8.626;2022-11-21T08:11:19;7.90;99.90
16174;DHT22;14031;50.158;8.626;2022-11-21T08:13:46;7.90;99.90
16174;DHT22;14031;50.158;8.626;2022-11-21T08:16:13;8.10;99.90
16174;DHT22;14031;50.158;8.626;2022-11-21T08:18:40;8.10;99.90
16174;DHT22;14031;50.158;8.626;2022-11-21T08:21:06;7.90;99.90
16174;DHT22;14031;50.158;8.626;2022-11-21T08:23:35;8.00;99.90
16174;DHT22;14031;50.158;8.626;2022-11-21T08:26:01;7.90;99.90
16174;DHT22;14031;50.158;8.626;2022-11-21T08:28:28;7.90;99.90
16174;DHT22;14031;50.158;8.626;2022-11-21T08:30:55;8.10;99.90
16174;DHT22;14031;50.158;8.626;2022-11-21T08:33:22;8.00;99.90
16174;DHT22;14031;50.158;8.626;2022-11-21T08:35:48;8.10;99.90
16174;DHT22;14031;50.158;8.626;2022-11-21T08:38:15;8.10;99.90
16174;DHT22;14031;50.158;8.626;2022-11-21T08:40:43;8.10;99.90
16174;DHT22;14031;50.158;8.626;2022-11-21T08:43:10;8.10;99.90
16174;DHT22;14031;50.158;8.626;2022-11-21T08:45:37;8.20;99.90
16174;DHT22;14031;50.158;8.626;2022-11-21T08:48:08;8.30;99.90
16174;DHT22;14031;50.158;8.626;2022-11-21T08:50:36;8.40;99.90
16174;DHT22;14031;50.158;8.626;2022-11-21T08:53:03;8.40;99.90
16174;DHT22;14031;50.158;8.626;2022-11-21T08:55:30;8.30;99.90
16174;DHT22;14031;50.158;8.626;2022-11-21T08:57:58;8.30;99.90
16174;DHT22;14031;50.158;8.626;2022-11-21T09:00:25;8.40;99.90
16174;DHT22;14031;50.158;8.626;2022-11-21T09:02:52;8.40;99.90
16174;DHT22;14031;50.158;8.626;2022-11-21T09:05:19;8.50;99.90
16174;DHT22;14031;50.158;8.626;2022-11-21T09:07:46;8.60;99.90
16174;DHT22;14031;50.158;8.626;2022-11-21T09:10:13;8.60;99.90
16174;DHT22;14031;50.158;8.626;2022-11-21T09:12:40;8.60;99.90
16174;DHT22;14031;50.158;8.626;2022-11-21T09:15:09;8.60;99.90
16174;DHT22;14031;50.158;8.626;2022-11-21T09:17:53;8.70;99.90
16174;DHT22;14031;50.158;8.626;2022-11-21T09:20:29;8.60;99.90
16174;DHT22;14031;50.158;8.626;2022-11-21T09:22:56;8.60;99.90
16174;DHT22;14031;50.158;8.626;2022-11-21T09:25:23;8.60;99.90
16174;DHT22;14031;50.158;8.626;2022-11-21T09:27:50;8.60;99.90
16174;DHT22;14031;50.158;8.626;2022-11-21T09:30:18;8.60;99.90
16174;DHT22;14031;50.158;8.626;2022-11-21T09:32:44;8.60;99.90
16174;DHT22;14031;50.158;8.626;2022-11-21T09:35:11;8.60;99.90
16174;DHT22;14031;50.158;8.626;2022-11-21T09:37:38;8.70;99.90
16174;DHT22;14031;50.158;8.626;2022-11-21T09:40:08;8.70;99.90
16174;DHT22;14031;50.158;8.626;2022-11-21T09:43:05;8.80;99.90
16174;DHT22;14031;50.158;8.626;2022-11-21T09:45:37;8.80;99.90
16174;DHT22;14031;50.158;8.626;2022-11-21T09:48:10;8.80;99.90
16174;DHT22;14031;50.158;8.626;2022-11-21T09:50:40;8.80;99.90
16174;DHT22;14031;50.158;8.626;2022-11-21T09:53:12;8.70;99.90
16174;DHT22;14031;50.158;8.626;2022-11-21T09:55:43;8.80;99.90
16174;DHT22;14031;50.158;8.626;2022-11-21T09:58:19;8.80;99.90
16174;DHT22;14031;50.158;8.626;2022-11-21T10:00:51;8.70;99.90
16174;DHT22;14031;50.158;8.626;2022-11-21T10:03:19;8.70;99.90
16174;DHT22;14031;50.158;8.626;2022-11-21T10:05:50;8.70;99.90
16174;DHT22;14031;50.158;8.626;2022-11-21T10:08:26;8.80;99.90
16174;DHT22;14031;50.158;8.626;2022-11-21T10:10:56;8.70;99.90
16174;DHT22;14031;50.158;8.626;2022-11-21T10:13:35;8.70;99.90
16174;DHT22;14031;50.158;8.626;2022-11-21T10:16:11;8.80;99.90
16174;DHT22;14031;50.158;8.626;2022-11-21T10:18:54;8.70;99.90
16174;DHT22;14031;50.158;8.626;2022-11-21T10:21:47;8.80;99.90
16174;DHT22;14031;50.158;8.626;2022-11-21T10:24:34;8.80;99.90
16174;DHT22;14031;50.158;8.626;2022-11-21T10:27:10;8.70;99.90
16174;DHT22;14031;50.158;8.626;2022-11-21T10:29:39;8.90;99.90
16174;DHT22;14031;50.158;8.626;2022-11-21T10:32:18;8.90;99.90
16174;DHT22;14031;50.158;8.626;2022-11-21T10:34:48;8.90;99.90
16174;DHT22;14031;50.158;8.626;2022-11-21T10:37:26;8.90;99.90
16174;DHT22;14031;50.158;8.626;2022-11-21T10:39:53;9.00;99.90
16174;DHT22;14031;50.158;8.626;2022-11-21T10:42:28;9.10;99.90
16174;DHT22;14031;50.158;8.626;2022-11-21T10:44:58;9.00;99.90
16174;DHT22;14031;50.158;8.626;2022-11-21T10:47:47;9.10;99.90
16174;DHT22;14031;50.158;8.626;2022-11-21T10:50:37;9.10;99.90
16174;DHT22;14031;50.158;8.626;2022-11-21T10:53:11;9.20;99.90
16174;DHT22;14031;50.158;8.626;2022-11-21T10:56:01;9.20;99.90
16174;DHT22;14031;50.158;8.626;2022-11-21T10:58:34;9.20;99.90
16174;DHT22;14031;50.158;8.626;2022-11-21T11:01:02;9.30;99.90
16174;DHT22;14031;50.158;8.626;2022-11-21T11:03:30;9.30;99.90
16174;DHT22;14031;50.158;8.626;2022-11-21T11:05:57;9.40;99.90
16174;DHT22;14031;50.158;8.626;2022-11-21T11:08:24;9.40;99.90
16174;DHT22;14031;50.158;8.626;2022-11-21T11:11:05;9.50;99.90
16174;DHT22;14031;50.158;8.626;2022-11-21T11:13:32;9.60;99.90
16174;DHT22;14031;50.158;8.626;2022-11-21T11:16:09;9.60;99.90
16174;DHT22;14031;50.158;8.626;2022-11-21T11:18:48;9.60;99.90
16174;DHT22;14031;50.158;8.626;2022-11-21T11:21:18;9.60;99.90
16174;DHT22;14031;50.158;8.626;2022-11-21T11:23:47;9.70;99.90
16174;DHT22;14031;50.158;8.626;2022-11-21T11:26:20;9.80;99.90
16174;DHT22;14031;50.158;8.626;2022-11-21T11:28:47;9.80;99.90
16174;DHT22;14031;50.158;8.626;2022-11-21T11:31:14;9.90;99.90
16174;DHT22;14031;50.158;8.626;2022-11-21T11:33:49;9.90;99.90
16174;DHT22;14031;50.158;8.626;2022-11-21T11:36:25;10.00;99.90
16174;DHT22;14031;50.158;8.626;2022-11-21T11:38:58;10.00;99.90
16174;DHT22;14031;50.158;8.626;2022-11-21T11:41:54;10.10;99.90
16174;DHT22;14031;50.158;8.626;2022-11-21T11:44:51;10.00;99.90
16174;DHT22;14031;50.158;8.626;2022-11-21T11:47:41;10.00;99.90
16174;DHT22;14031;50.158;8.626;2022-11-21T11:50:17;10.00;99.90
16174;DHT22;14031;50.158;8.626;2022-11-21T11:52:53;10.10;99.90
16174;DHT22;14031;50.158;8.626;2022-11-21T11:55:26;10.10;99.90
16174;DHT22;14031;50.158;8.626;2022-11-21T11:57:58;10.20;99.90
16174;DHT22;14031;50.158;8.626;2022-11-21T12:00:35;10.20;99.90
16174;DHT22;14031;50.158;8.626;2022-11-21T12:03:12;10.40;99.90
16174;DHT22;14031;50.158;8.626;2022-11-21T12:05:53;10.30;99.90
16174;DHT22;14031;50.158;8.626;2022-11-21T12:08:25;10.40;99.90
16174;DHT22;14031;50.158;8.626;2022-11-21T12:10:58;10.40;99.90
16174;DHT22;14031;50.158;8.626;2022-11-21T12:13:46;10.40;99.90
16174;DHT22;14031;50.158;8.626;2022-11-21T12:16:14;10.40;99.90
16174;DHT22;14031;50.158;8.626;2022-11-21T12:18:49;10.40;99.90
16174;DHT22;14031;50.158;8.626;2022-11-21T12:21:17;10.30;99.90
16174;DHT22;14031;50.158;8.626;2022-11-21T12:23:46;10.20;99.90
16174;DHT22;14031;50.158;8.626;2022-11-21T12:29:17;10.20;99.90
16174;DHT22;14031;50.158;8.626;2022-11-21T12:31:57;10.30;99.90
16174;DHT22;14031;50.158;8.626;2022-11-21T12:34:42;10.30;99.90
16174;DHT22;14031;50.158;8.626;2022-11-21T12:37:17;10.30;99.90
16174;DHT22;14031;50.158;8.626;2022-11-21T12:39:57;10.20;99.90
16174;DHT22;14031;50.158;8.626;2022-11-21T12:42:27;10.10;99.90
16174;DHT22;14031;50.158;8.626;2022-11-21T12:45:28;10.10;99.90
16174;DHT22;14031;50.158;8.626;2022-11-21T12:48:10;10.10;99.90
16174;DHT22;14031;50.158;8.626;2022-11-21T12:51:14;10.00;99.90
16174;DHT22;14031;50.158;8.626;2022-11-21T12:54:12;10.20;99.90
16174;DHT22;14031;50.158;8.626;2022-11-21T12:57:04;9.90;99.90
16174;DHT22;14031;50.158;8.626;2022-11-21T12:59:40;10.10;99.90
16174;DHT22;14031;50.158;8.626;2022-11-21T13:02:22;10.20;99.90
16174;DHT22;14031;50.158;8.626;2022-11-21T13:04:51;10.30;99.90
16174;DHT22;14031;50.158;8.626;2022-11-21T13:07:20;10.40;99.90
16174;DHT22;14031;50.158;8.626;2022-11-21T13:09:52;10.50;99.90
16174;DHT22;14031;50.158;8.626;2022-11-21T13:12:27;10.60;99.90
16174;DHT22;14031;50.158;8.626;2022-11-21T13:15:03;10.70;99.90
16174;DHT22;14031;50.158;8.626;2022-11-21T13:17:40;10.70;99.90
16174;DHT22;14031;50.158;8.626;2022-11-21T13:20:19;10.70;99.90
16174;DHT22;14031;50.158;8.626;2022-11-21T13:22:50;10.80;99.90
16174;DHT22;14031;50.158;8.626;2022-11-21T13:25:38;10.90;99.90
16174;DHT22;14031;50.158;8.626;2022-11-21T13:28:28;10.90;99.90
16174;DHT22;14031;50.158;8.626;2022-11-21T13:30:56;10.90;99.90
16174;DHT22;14031;50.158;8.626;2022-11-21T13:33:45;10.80;99.90
16174;DHT22;14031;50.158;8.626;2022-11-21T13:36:34;10.80;99.90
16174;DHT22;14031;50.158;8.626;2022-11-21T13:39:30;10.80;99.90
16174;DHT22;14031;50.158;8.626;2022-11-21T13:42:10;10.60;99.90
16174;DHT22;14031;50.158;8.626;2022-11-21T13:44:54;10.60;99.90
16174;DHT22;14031;50.158;8.626;2022-11-21T13:50:50;10.60;99.90
16174;DHT22;14031;50.158;8.626;2022-11-21T13:56:25;10.70;99.90
16174;DHT22;14031;50.158;8.626;2022-11-21T13:59:04;10.80;99.90
16174;DHT22;14031;50.158;8.626;2022-11-21T14:01:47;10.80;99.90
16174;DHT22;14031;50.158;8.626;2022-11-21T14:04:40;10.80;99.90
16174;DHT22;14031;50.158;8.626;2022-11-21T14:07:21;10.80;99.90
16174;DHT22;14031;50.158;8.626;2022-11-21T14:09:50;10.80;99.90
16174;DHT22;14031;50.158;8.626;2022-11-21T14:12:22;10.70;99.90
16174;DHT22;14031;50.158;8.626;2022-11-21T14:14:53;10.70;99.90
16174;DHT22;14031;50.158;8.626;2022-11-21T14:17:37;10.70;99.90
16174;DHT22;14031;50.158;8.626;2022-11-21T14:20:14;10.70;99.90
16174;DHT22;14031;50.158;8.626;2022-11-21T14:22:46;10.70;99.90
16174;DHT22;14031;50.158;8.626;2022-11-21T14:25:19;10.70;99.90
16174;DHT22;14031;50.158;8.626;2022-11-21T14:27:50;10.60;99.90
16174;DHT22;14031;50.158;8.626;2022-11-21T14:30:29;10.60;99.90
16174;DHT22;14031;50.158;8.626;2022-11-21T14:35:39;10.50;99.90
16174;DHT22;14031;50.158;8.626;2022-11-21T14:38:05;10.50;99.90
16174;DHT22;14031;50.158;8.626;2022-11-21T14:40:32;10.40;99.90
16174;DHT22;14031;50.158;8.626;2022-11-21T14:42:59;10.40;99.90
16174;DHT22;14031;50.158;8.626;2022-11-21T14:45:27;10.30;99.90
16174;DHT22;14031;50.158;8.626;2022-11-21T14:47:54;10.30;99.90
16174;DHT22;14031;50.158;8.626;2022-11-21T14:50:28;10.20;99.90
16174;DHT22;14031;50.158;8.626;2022-11-21T14:52:55;10.10;99.90
16174;DHT22;14031;50.158;8.626;2022-11-21T14:55:25;10.10;99.90
16174;DHT22;14031;50.158;8.626;2022-11-21T14:57:54;10.00;99.90
16174;DHT22;14031;50.158;8.626;2022-11-21T15:00:23;9.90;99.90
16174;DHT22;14031;50.158;8.626;2022-11-21T15:02:52;9.90;99.90
16174;DHT22;14031;50.158;8.626;2022-11-21T15:05:21;9.80;99.90
16174;DHT22;14031;50.158;8.626;2022-11-21T15:07:48;9.80;99.90
16174;DHT22;14031;50.158;8.626;2022-11-21T15:10:17;9.70;99.90
16174;DHT22;14031;50.158;8.626;2022-11-21T15:12:52;9.60;99.90
16174;DHT22;14031;50.158;8.626;2022-11-21T15:15:27;9.60;99.90
16174;DHT22;14031;50.158;8.626;2022-11-21T15:17:57;9.50;99.90
16174;DHT22;14031;50.158;8.626;2022-11-21T15:20:25;9.40;99.90
16174;DHT22;14031;50.158;8.626;2022-11-21T15:22:54;9.40;99.90
16174;DHT22;14031;50.158;8.626;2022-11-21T15:25:23;9.40;99.90
16174;DHT22;14031;50.158;8.626;2022-11-21T15:27:51;9.30;99.90
16174;DHT22;14031;50.158;8.626;2022-11-21T15:30:22;9.20;99.90
16174;DHT22;14031;50.158;8.626;2022-11-21T15:33:05;9.10;99.90
16174;DHT22;14031;50.158;8.626;2022-11-21T15:35:43;9.10;99.90
16174;DHT22;14031;50.158;8.626;2022-11-21T15:38:24;9.00;99.90
16174;DHT22;14031;50.158;8.626;2022-11-21T15:41:21;8.90;99.90
16174;DHT22;14031;50.158;8.626;2022-11-21T15:43:50;8.80;99.90
16174;DHT22;14031;50.158;8.626;2022-11-21T15:46:19;8.80;99.90
16174;DHT22;14031;50.158;8.626;2022-11-21T15:48:49;8.70;99.90
16174;DHT22;14031;50.158;8.626;2022-11-21T15:51:18;8.70;99.90
16174;DHT22;14031;50.158;8.626;2022-11-21T15:53:45;8.60;99.90
16174;DHT22;14031;50.158;8.626;2022-11-21T15:56:14;8.60;99.90
16174;DHT22;14031;50.158;8.626;2022-11-21T15:58:41;8.50;99.90
16174;DHT22;14031;50.158;8.626;2022-11-21T16:01:13;8.40;99.90
16174;DHT22;14031;50.158;8.626;2022-11-21T16:03:41;8.40;99.90
16174;DHT22;14031;50.158;8.626;2022-11-21T16:06:09;8.40;99.90
16174;DHT22;14031;50.158;8.626;2022-11-21T16:08:36;8.30;99.90
16174;DHT22;14031;50.158;8.626;2022-11-21T16:11:03;8.30;99.90
16174;DHT22;14031;50.158;8.626;2022-11-21T16:13:30;8.30;99.90
16174;DHT22;14031;50.158;8.626;2022-11-21T16:15:59;8.20;99.90